Terminal Aerodrome Forecast
Issued by NWS Albany, NY

Home | Current Version | Previous Version | Text Only | Print | Product List | Glossary On
Versions: 1 2 3 4 5 6 7 8 9 10 11 12 13 14 15 16 17 18 19 20 21 22 23 24
000
FTUS41 KALY 231700
TAFPOU
TAF
KPOU 231739Z 2318/2418 05005KT P6SM SCT035 BKN070
     FM232000 VRB03KT P6SM SCT050
     FM240800 00000KT 3SM BR SCT008 BKN030
     FM241130 36005KT P6SM FEW060=

USA.gov is the U.S. government's official web portal to all federal, state and local government web resources and services.